Port Hedland, Australia
Current Conditions -  °F | °C
As of 8:00 PM on Friday 19 Dec 2014 (Local Time) from YPPD Reporting Station
Clear Clear  
Wind Chill: 82°   Ceiling: Unl
Heat Index: 87°   Visibility: 6mi
Dew Point: 72°   Wind: 15mph
Humidity: 70%   Direction: 290°WNW
Pressure: 29.83"   Gusts: NA
Location:  20.31°S, 118.58°E
Report Text: YPPD 191200Z AUTO 29013KT 9999 // NCD 28/22 Q1010
Loading
Personal Weather Stations






























Interactive Weather Map New forecast layout! Learn more

10-Day Weather Forecast

Advertisements
Track Severe Weather on mobile